sensor_id;sensor_type;location;lat;lon;timestamp;P1;durP1;ratioP1;P2;durP2;ratioP2
75810;SDS011;64449;50.016;19.954;2022-10-30T00:00:52;20.40;;;13.90;;
75810;SDS011;64449;50.016;19.954;2022-10-30T00:03:17;18.80;;;11.30;;
75810;SDS011;64449;50.016;19.954;2022-10-30T00:05:43;18.20;;;10.80;;
75810;SDS011;64449;50.016;19.954;2022-10-30T00:08:11;22.20;;;13.60;;
75810;SDS011;64449;50.016;19.954;2022-10-30T00:10:38;25.20;;;15.80;;
75810;SDS011;64449;50.016;19.954;2022-10-30T00:13:04;24.70;;;14.50;;
75810;SDS011;64449;50.016;19.954;2022-10-30T00:15:31;22.80;;;13.30;;
75810;SDS011;64449;50.016;19.954;2022-10-30T00:17:56;21.50;;;13.10;;
75810;SDS011;64449;50.016;19.954;2022-10-30T00:20:22;20.80;;;13.50;;
75810;SDS011;64449;50.016;19.954;2022-10-30T00:22:47;21.10;;;15.20;;
75810;SDS011;64449;50.016;19.954;2022-10-30T00:25:13;21.30;;;14.80;;
75810;SDS011;64449;50.016;19.954;2022-10-30T00:27:38;19.40;;;13.40;;
75810;SDS011;64449;50.016;19.954;2022-10-30T00:30:03;19.80;;;12.70;;
75810;SDS011;64449;50.016;19.954;2022-10-30T00:32:29;23.90;;;15.20;;
75810;SDS011;64449;50.016;19.954;2022-10-30T00:34:55;20.90;;;12.70;;
75810;SDS011;64449;50.016;19.954;2022-10-30T00:37:20;23.90;;;14.70;;
75810;SDS011;64449;50.016;19.954;2022-10-30T00:39:45;26.20;;;15.80;;
75810;SDS011;64449;50.016;19.954;2022-10-30T00:42:11;20.80;;;13.90;;
75810;SDS011;64449;50.016;19.954;2022-10-30T00:44:44;22.80;;;14.40;;
75810;SDS011;64449;50.016;19.954;2022-10-30T00:49:57;23.30;;;14.80;;
75810;SDS011;64449;50.016;19.954;2022-10-30T00:52:32;21.50;;;12.10;;
75810;SDS011;64449;50.016;19.954;2022-10-30T00:55:06;22.40;;;12.40;;
75810;SDS011;64449;50.016;19.954;2022-10-30T00:57:40;23.20;;;12.30;;
75810;SDS011;64449;50.016;19.954;2022-10-30T01:00:07;24.10;;;14.00;;
75810;SDS011;64449;50.016;19.954;2022-10-30T01:02:34;22.30;;;14.70;;
75810;SDS011;64449;50.016;19.954;2022-10-30T01:05:01;16.10;;;10.10;;
75810;SDS011;64449;50.016;19.954;2022-10-30T01:07:27;25.60;;;14.30;;
75810;SDS011;64449;50.016;19.954;2022-10-30T01:09:52;23.20;;;15.20;;
75810;SDS011;64449;50.016;19.954;2022-10-30T01:12:18;25.30;;;15.70;;
75810;SDS011;64449;50.016;19.954;2022-10-30T01:14:45;24.10;;;14.90;;
75810;SDS011;64449;50.016;19.954;2022-10-30T01:20:13;21.20;;;13.60;;
75810;SDS011;64449;50.016;19.954;2022-10-30T01:25:49;20.20;;;12.40;;
75810;SDS011;64449;50.016;19.954;2022-10-30T01:34:16;21.90;;;12.50;;
75810;SDS011;64449;50.016;19.954;2022-10-30T01:36:58;22.50;;;13.20;;
75810;SDS011;64449;50.016;19.954;2022-10-30T01:39:28;20.20;;;13.70;;
75810;SDS011;64449;50.016;19.954;2022-10-30T01:41:58;21.20;;;12.70;;
75810;SDS011;64449;50.016;19.954;2022-10-30T01:49:27;22.20;;;12.80;;
75810;SDS011;64449;50.016;19.954;2022-10-30T01:57:10;21.70;;;16.30;;
75810;SDS011;64449;50.016;19.954;2022-10-30T01:59:44;24.80;;;14.20;;
75810;SDS011;64449;50.016;19.954;2022-10-30T02:02:23;18.00;;;11.80;;
75810;SDS011;64449;50.016;19.954;2022-10-30T02:04:49;23.90;;;13.90;;
75810;SDS011;64449;50.016;19.954;2022-10-30T02:07:15;26.20;;;14.90;;
75810;SDS011;64449;50.016;19.954;2022-10-30T02:09:41;23.50;;;14.80;;
75810;SDS011;64449;50.016;19.954;2022-10-30T02:12:07;21.90;;;13.40;;
75810;SDS011;64449;50.016;19.954;2022-10-30T02:14:35;23.00;;;14.20;;
75810;SDS011;64449;50.016;19.954;2022-10-30T02:17:05;25.00;;;14.80;;
75810;SDS011;64449;50.016;19.954;2022-10-30T02:19:32;24.50;;;14.50;;
75810;SDS011;64449;50.016;19.954;2022-10-30T02:21:58;26.20;;;15.20;;
75810;SDS011;64449;50.016;19.954;2022-10-30T02:24:23;21.10;;;13.20;;
75810;SDS011;64449;50.016;19.954;2022-10-30T02:26:49;19.20;;;12.30;;
75810;SDS011;64449;50.016;19.954;2022-10-30T02:29:14;22.90;;;14.30;;
75810;SDS011;64449;50.016;19.954;2022-10-30T02:31:41;26.10;;;15.10;;
75810;SDS011;64449;50.016;19.954;2022-10-30T02:34:06;19.80;;;12.70;;
75810;SDS011;64449;50.016;19.954;2022-10-30T02:36:32;23.90;;;14.40;;
75810;SDS011;64449;50.016;19.954;2022-10-30T02:38:57;25.10;;;15.30;;
75810;SDS011;64449;50.016;19.954;2022-10-30T02:41:24;24.40;;;15.00;;
75810;SDS011;64449;50.016;19.954;2022-10-30T02:43:50;25.10;;;14.80;;
75810;SDS011;64449;50.016;19.954;2022-10-30T02:46:17;21.90;;;13.40;;
75810;SDS011;64449;50.016;19.954;2022-10-30T02:48:43;21.70;;;13.50;;
75810;SDS011;64449;50.016;19.954;2022-10-30T02:51:08;23.00;;;14.70;;
75810;SDS011;64449;50.016;19.954;2022-10-30T02:53:33;21.70;;;14.60;;
75810;SDS011;64449;50.016;19.954;2022-10-30T02:56:06;19.00;;;12.20;;
75810;SDS011;64449;50.016;19.954;2022-10-30T02:58:33;22.60;;;14.30;;
75810;SDS011;64449;50.016;19.954;2022-10-30T03:01:09;23.10;;;14.20;;
75810;SDS011;64449;50.016;19.954;2022-10-30T03:03:40;23.10;;;14.40;;
75810;SDS011;64449;50.016;19.954;2022-10-30T03:06:06;21.50;;;14.20;;
75810;SDS011;64449;50.016;19.954;2022-10-30T03:08:33;26.10;;;14.80;;
75810;SDS011;64449;50.016;19.954;2022-10-30T03:11:04;23.20;;;15.30;;
75810;SDS011;64449;50.016;19.954;2022-10-30T03:13:33;25.60;;;15.30;;
75810;SDS011;64449;50.016;19.954;2022-10-30T03:16:00;22.40;;;14.40;;
75810;SDS011;64449;50.016;19.954;2022-10-30T03:18:25;22.90;;;15.70;;
75810;SDS011;64449;50.016;19.954;2022-10-30T03:20:54;19.00;;;11.70;;
75810;SDS011;64449;50.016;19.954;2022-10-30T03:23:21;26.40;;;16.60;;
75810;SDS011;64449;50.016;19.954;2022-10-30T03:25:47;23.10;;;13.30;;
75810;SDS011;64449;50.016;19.954;2022-10-30T03:28:16;24.90;;;15.90;;
75810;SDS011;64449;50.016;19.954;2022-10-30T03:30:41;20.60;;;12.30;;
75810;SDS011;64449;50.016;19.954;2022-10-30T03:33:06;21.00;;;13.20;;
75810;SDS011;64449;50.016;19.954;2022-10-30T03:35:33;25.50;;;15.90;;
75810;SDS011;64449;50.016;19.954;2022-10-30T03:38:00;24.10;;;15.00;;
75810;SDS011;64449;50.016;19.954;2022-10-30T03:40:25;29.00;;;16.00;;
75810;SDS011;64449;50.016;19.954;2022-10-30T03:42:50;26.10;;;14.80;;
75810;SDS011;64449;50.016;19.954;2022-10-30T03:45:16;21.40;;;13.40;;
75810;SDS011;64449;50.016;19.954;2022-10-30T03:47:41;19.90;;;12.30;;
75810;SDS011;64449;50.016;19.954;2022-10-30T03:50:06;23.20;;;12.50;;
75810;SDS011;64449;50.016;19.954;2022-10-30T03:52:32;21.30;;;13.40;;
75810;SDS011;64449;50.016;19.954;2022-10-30T03:54:57;21.90;;;13.50;;
75810;SDS011;64449;50.016;19.954;2022-10-30T03:57:23;25.50;;;15.70;;
75810;SDS011;64449;50.016;19.954;2022-10-30T03:59:48;23.60;;;14.70;;
75810;SDS011;64449;50.016;19.954;2022-10-30T04:02:14;24.50;;;12.80;;
75810;SDS011;64449;50.016;19.954;2022-10-30T04:04:39;25.80;;;15.20;;
75810;SDS011;64449;50.016;19.954;2022-10-30T04:07:04;20.20;;;12.00;;
75810;SDS011;64449;50.016;19.954;2022-10-30T04:09:30;19.60;;;10.30;;
75810;SDS011;64449;50.016;19.954;2022-10-30T04:11:55;24.80;;;15.20;;
75810;SDS011;64449;50.016;19.954;2022-10-30T04:14:20;22.80;;;14.10;;
75810;SDS011;64449;50.016;19.954;2022-10-30T04:16:46;23.60;;;14.60;;
75810;SDS011;64449;50.016;19.954;2022-10-30T04:19:11;22.60;;;15.90;;
75810;SDS011;64449;50.016;19.954;2022-10-30T04:21:36;20.60;;;11.70;;
75810;SDS011;64449;50.016;19.954;2022-10-30T04:24:02;20.20;;;11.10;;
75810;SDS011;64449;50.016;19.954;2022-10-30T04:26:28;23.60;;;14.60;;
75810;SDS011;64449;50.016;19.954;2022-10-30T04:28:53;22.00;;;15.80;;
75810;SDS011;64449;50.016;19.954;2022-10-30T04:31:18;25.70;;;15.50;;
75810;SDS011;64449;50.016;19.954;2022-10-30T04:33:44;27.60;;;15.10;;
75810;SDS011;64449;50.016;19.954;2022-10-30T04:36:09;20.00;;;12.20;;
75810;SDS011;64449;50.016;19.954;2022-10-30T04:38:34;22.60;;;14.50;;
75810;SDS011;64449;50.016;19.954;2022-10-30T04:41:00;22.60;;;12.60;;
75810;SDS011;64449;50.016;19.954;2022-10-30T04:43:25;21.90;;;14.00;;
75810;SDS011;64449;50.016;19.954;2022-10-30T04:45:51;23.00;;;13.20;;
75810;SDS011;64449;50.016;19.954;2022-10-30T04:48:17;24.00;;;13.80;;
75810;SDS011;64449;50.016;19.954;2022-10-30T04:50:43;28.20;;;15.30;;
75810;SDS011;64449;50.016;19.954;2022-10-30T04:53:11;22.70;;;13.40;;
75810;SDS011;64449;50.016;19.954;2022-10-30T04:55:38;21.00;;;13.60;;
75810;SDS011;64449;50.016;19.954;2022-10-30T04:58:03;26.70;;;15.00;;
75810;SDS011;64449;50.016;19.954;2022-10-30T05:00:32;24.40;;;13.60;;
75810;SDS011;64449;50.016;19.954;2022-10-30T05:02:58;20.20;;;11.90;;
75810;SDS011;64449;50.016;19.954;2022-10-30T05:05:25;20.20;;;11.80;;
75810;SDS011;64449;50.016;19.954;2022-10-30T05:07:51;22.00;;;14.90;;
75810;SDS011;64449;50.016;19.954;2022-10-30T05:10:16;22.50;;;14.30;;
75810;SDS011;64449;50.016;19.954;2022-10-30T05:12:42;19.80;;;12.50;;
75810;SDS011;64449;50.016;19.954;2022-10-30T05:15:09;29.80;;;16.00;;
75810;SDS011;64449;50.016;19.954;2022-10-30T05:17:35;27.90;;;15.80;;
75810;SDS011;64449;50.016;19.954;2022-10-30T05:20:00;26.10;;;14.90;;
75810;SDS011;64449;50.016;19.954;2022-10-30T05:22:26;22.30;;;14.70;;
75810;SDS011;64449;50.016;19.954;2022-10-30T05:24:51;26.80;;;16.00;;
75810;SDS011;64449;50.016;19.954;2022-10-30T05:27:17;24.50;;;15.40;;
75810;SDS011;64449;50.016;19.954;2022-10-30T05:29:42;28.60;;;15.00;;
75810;SDS011;64449;50.016;19.954;2022-10-30T05:32:08;27.40;;;15.30;;
75810;SDS011;64449;50.016;19.954;2022-10-30T05:34:33;23.50;;;14.90;;
75810;SDS011;64449;50.016;19.954;2022-10-30T05:36:58;21.50;;;13.10;;
75810;SDS011;64449;50.016;19.954;2022-10-30T05:39:25;19.80;;;11.80;;
75810;SDS011;64449;50.016;19.954;2022-10-30T05:41:51;25.60;;;14.20;;
75810;SDS011;64449;50.016;19.954;2022-10-30T05:44:16;16.60;;;11.70;;
75810;SDS011;64449;50.016;19.954;2022-10-30T05:46:42;16.80;;;10.40;;
75810;SDS011;64449;50.016;19.954;2022-10-30T05:49:07;18.90;;;12.00;;
75810;SDS011;64449;50.016;19.954;2022-10-30T05:51:33;14.70;;;9.40;;
75810;SDS011;64449;50.016;19.954;2022-10-30T05:53:58;17.00;;;9.90;;
75810;SDS011;64449;50.016;19.954;2022-10-30T05:56:23;20.30;;;12.80;;
75810;SDS011;64449;50.016;19.954;2022-10-30T05:58:49;30.10;;;17.00;;
75810;SDS011;64449;50.016;19.954;2022-10-30T06:01:15;23.10;;;15.10;;
75810;SDS011;64449;50.016;19.954;2022-10-30T06:03:41;18.50;;;12.30;;
75810;SDS011;64449;50.016;19.954;2022-10-30T06:06:07;18.20;;;11.90;;
75810;SDS011;64449;50.016;19.954;2022-10-30T06:08:33;16.70;;;9.70;;
75810;SDS011;64449;50.016;19.954;2022-10-30T06:10:58;17.30;;;10.30;;
75810;SDS011;64449;50.016;19.954;2022-10-30T06:13:24;15.90;;;10.70;;
75810;SDS011;64449;50.016;19.954;2022-10-30T06:15:50;19.20;;;11.50;;
75810;SDS011;64449;50.016;19.954;2022-10-30T06:18:15;16.50;;;10.10;;
75810;SDS011;64449;50.016;19.954;2022-10-30T06:20:40;21.10;;;12.30;;
75810;SDS011;64449;50.016;19.954;2022-10-30T06:23:06;16.80;;;11.30;;
75810;SDS011;64449;50.016;19.954;2022-10-30T06:25:33;17.50;;;11.00;;
75810;SDS011;64449;50.016;19.954;2022-10-30T06:27:59;19.40;;;12.50;;
75810;SDS011;64449;50.016;19.954;2022-10-30T06:30:25;16.40;;;10.00;;
75810;SDS011;64449;50.016;19.954;2022-10-30T06:32:55;18.80;;;12.70;;
75810;SDS011;64449;50.016;19.954;2022-10-30T06:35:22;23.40;;;13.40;;
75810;SDS011;64449;50.016;19.954;2022-10-30T06:37:47;21.70;;;12.50;;
75810;SDS011;64449;50.016;19.954;2022-10-30T06:40:14;19.80;;;12.20;;
75810;SDS011;64449;50.016;19.954;2022-10-30T06:45:09;15.60;;;8.80;;
75810;SDS011;64449;50.016;19.954;2022-10-30T06:47:36;18.00;;;10.90;;
75810;SDS011;64449;50.016;19.954;2022-10-30T06:50:03;17.80;;;10.90;;
75810;SDS011;64449;50.016;19.954;2022-10-30T06:52:29;18.30;;;11.80;;
75810;SDS011;64449;50.016;19.954;2022-10-30T06:54:55;20.70;;;12.00;;
75810;SDS011;64449;50.016;19.954;2022-10-30T06:57:20;18.30;;;11.30;;
75810;SDS011;64449;50.016;19.954;2022-10-30T06:59:46;14.50;;;9.80;;
75810;SDS011;64449;50.016;19.954;2022-10-30T07:02:11;19.10;;;10.80;;
75810;SDS011;64449;50.016;19.954;2022-10-30T07:04:36;19.80;;;11.90;;
75810;SDS011;64449;50.016;19.954;2022-10-30T07:07:02;20.40;;;11.70;;
75810;SDS011;64449;50.016;19.954;2022-10-30T07:09:28;19.00;;;11.20;;
75810;SDS011;64449;50.016;19.954;2022-10-30T07:11:54;11.60;;;8.10;;
75810;SDS011;64449;50.016;19.954;2022-10-30T07:14:19;14.70;;;9.20;;
75810;SDS011;64449;50.016;19.954;2022-10-30T07:16:44;14.80;;;9.70;;
75810;SDS011;64449;50.016;19.954;2022-10-30T07:19:10;18.40;;;11.10;;
75810;SDS011;64449;50.016;19.954;2022-10-30T07:21:35;16.30;;;11.10;;
75810;SDS011;64449;50.016;19.954;2022-10-30T07:24:00;17.30;;;9.90;;
75810;SDS011;64449;50.016;19.954;2022-10-30T07:26:26;12.90;;;8.80;;
75810;SDS011;64449;50.016;19.954;2022-10-30T07:28:51;16.80;;;10.60;;
75810;SDS011;64449;50.016;19.954;2022-10-30T07:31:17;15.90;;;10.20;;
75810;SDS011;64449;50.016;19.954;2022-10-30T07:33:42;16.60;;;9.10;;
75810;SDS011;64449;50.016;19.954;2022-10-30T07:36:07;18.80;;;10.90;;
75810;SDS011;64449;50.016;19.954;2022-10-30T07:38:33;15.90;;;9.70;;
75810;SDS011;64449;50.016;19.954;2022-10-30T07:40:58;17.50;;;10.40;;
75810;SDS011;64449;50.016;19.954;2022-10-30T07:43:24;18.50;;;9.70;;
75810;SDS011;64449;50.016;19.954;2022-10-30T07:45:49;17.60;;;9.90;;
75810;SDS011;64449;50.016;19.954;2022-10-30T07:48:15;14.20;;;7.80;;
75810;SDS011;64449;50.016;19.954;2022-10-30T07:50:40;16.50;;;10.90;;
75810;SDS011;64449;50.016;19.954;2022-10-30T07:53:06;17.70;;;9.80;;
75810;SDS011;64449;50.016;19.954;2022-10-30T07:55:31;19.40;;;12.10;;
75810;SDS011;64449;50.016;19.954;2022-10-30T07:57:56;18.90;;;11.30;;
75810;SDS011;64449;50.016;19.954;2022-10-30T08:00:22;21.30;;;13.40;;
75810;SDS011;64449;50.016;19.954;2022-10-30T08:02:48;16.80;;;10.10;;
75810;SDS011;64449;50.016;19.954;2022-10-30T08:05:20;15.60;;;9.20;;
75810;SDS011;64449;50.016;19.954;2022-10-30T08:07:45;14.00;;;8.60;;
75810;SDS011;64449;50.016;19.954;2022-10-30T08:10:11;12.90;;;8.40;;
75810;SDS011;64449;50.016;19.954;2022-10-30T08:12:37;14.10;;;7.70;;
75810;SDS011;64449;50.016;19.954;2022-10-30T08:15:05;14.50;;;9.90;;
75810;SDS011;64449;50.016;19.954;2022-10-30T08:17:31;16.20;;;9.40;;
75810;SDS011;64449;50.016;19.954;2022-10-30T08:19:57;18.60;;;10.10;;
75810;SDS011;64449;50.016;19.954;2022-10-30T08:22:22;18.80;;;9.50;;
75810;SDS011;64449;50.016;19.954;2022-10-30T08:24:48;17.60;;;10.10;;
75810;SDS011;64449;50.016;19.954;2022-10-30T08:27:14;13.80;;;9.70;;
75810;SDS011;64449;50.016;19.954;2022-10-30T08:29:40;14.30;;;8.60;;
75810;SDS011;64449;50.016;19.954;2022-10-30T08:32:06;16.00;;;8.20;;
75810;SDS011;64449;50.016;19.954;2022-10-30T08:34:31;15.60;;;9.40;;
75810;SDS011;64449;50.016;19.954;2022-10-30T08:36:58;9.80;;;6.50;;
75810;SDS011;64449;50.016;19.954;2022-10-30T08:39:24;13.30;;;8.70;;
75810;SDS011;64449;50.016;19.954;2022-10-30T08:41:49;13.30;;;9.30;;
75810;SDS011;64449;50.016;19.954;2022-10-30T08:44:15;13.00;;;7.70;;
75810;SDS011;64449;50.016;19.954;2022-10-30T08:46:40;13.40;;;9.20;;
75810;SDS011;64449;50.016;19.954;2022-10-30T08:49:05;13.70;;;7.40;;
75810;SDS011;64449;50.016;19.954;2022-10-30T08:51:31;15.50;;;9.60;;
75810;SDS011;64449;50.016;19.954;2022-10-30T08:53:58;14.80;;;9.20;;
75810;SDS011;64449;50.016;19.954;2022-10-30T08:56:24;16.00;;;8.80;;
75810;SDS011;64449;50.016;19.954;2022-10-30T08:58:49;12.50;;;7.80;;
75810;SDS011;64449;50.016;19.954;2022-10-30T09:01:15;12.00;;;7.80;;
75810;SDS011;64449;50.016;19.954;2022-10-30T09:03:41;14.00;;;8.10;;
75810;SDS011;64449;50.016;19.954;2022-10-30T09:06:08;15.80;;;7.80;;
75810;SDS011;64449;50.016;19.954;2022-10-30T09:08:33;13.20;;;8.70;;
75810;SDS011;64449;50.016;19.954;2022-10-30T09:10:59;9.20;;;5.40;;
75810;SDS011;64449;50.016;19.954;2022-10-30T09:13:24;11.70;;;6.30;;
75810;SDS011;64449;50.016;19.954;2022-10-30T09:15:50;13.30;;;7.10;;
75810;SDS011;64449;50.016;19.954;2022-10-30T09:18:16;10.20;;;6.20;;
75810;SDS011;64449;50.016;19.954;2022-10-30T09:20:41;13.30;;;6.90;;
75810;SDS011;64449;50.016;19.954;2022-10-30T09:23:07;16.80;;;8.40;;
75810;SDS011;64449;50.016;19.954;2022-10-30T09:25:32;12.60;;;7.70;;
75810;SDS011;64449;50.016;19.954;2022-10-30T09:27:58;14.50;;;6.60;;
75810;SDS011;64449;50.016;19.954;2022-10-30T09:30:23;12.20;;;7.40;;
75810;SDS011;64449;50.016;19.954;2022-10-30T09:32:53;9.90;;;6.10;;
75810;SDS011;64449;50.016;19.954;2022-10-30T09:35:27;9.40;;;6.20;;
75810;SDS011;64449;50.016;19.954;2022-10-30T09:37:53;11.00;;;6.10;;
75810;SDS011;64449;50.016;19.954;2022-10-30T09:40:26;12.30;;;7.00;;
75810;SDS011;64449;50.016;19.954;2022-10-30T09:45:51;8.10;;;4.40;;
75810;SDS011;64449;50.016;19.954;2022-10-30T10:07:20;8.40;;;4.30;;
75810;SDS011;64449;50.016;19.954;2022-10-30T10:09:50;10.60;;;6.00;;
75810;SDS011;64449;50.016;19.954;2022-10-30T10:12:42;10.40;;;5.70;;
75810;SDS011;64449;50.016;19.954;2022-10-30T10:15:14;9.90;;;5.10;;
75810;SDS011;64449;50.016;19.954;2022-10-30T10:18:02;9.10;;;5.00;;
75810;SDS011;64449;50.016;19.954;2022-10-30T10:20:33;10.40;;;5.20;;
75810;SDS011;64449;50.016;19.954;2022-10-30T10:23:09;12.40;;;5.90;;
75810;SDS011;64449;50.016;19.954;2022-10-30T10:25:57;12.40;;;5.80;;
75810;SDS011;64449;50.016;19.954;2022-10-30T10:37:25;11.70;;;6.20;;
75810;SDS011;64449;50.016;19.954;2022-10-30T10:39:58;14.10;;;6.70;;
75810;SDS011;64449;50.016;19.954;2022-10-30T10:42:50;11.80;;;5.20;;
75810;SDS011;64449;50.016;19.954;2022-10-30T10:51:34;8.70;;;5.90;;
75810;SDS011;64449;50.016;19.954;2022-10-30T10:54:05;9.80;;;5.00;;
75810;SDS011;64449;50.016;19.954;2022-10-30T10:56:38;8.10;;;4.80;;
75810;SDS011;64449;50.016;19.954;2022-10-30T10:59:12;8.50;;;4.80;;
75810;SDS011;64449;50.016;19.954;2022-10-30T11:01:55;11.00;;;4.90;;
75810;SDS011;64449;50.016;19.954;2022-10-30T11:04:33;7.80;;;4.30;;
75810;SDS011;64449;50.016;19.954;2022-10-30T11:07:17;8.50;;;4.50;;
75810;SDS011;64449;50.016;19.954;2022-10-30T11:09:46;10.60;;;5.10;;
75810;SDS011;64449;50.016;19.954;2022-10-30T11:12:18;12.20;;;4.30;;
75810;SDS011;64449;50.016;19.954;2022-10-30T11:14:47;11.90;;;4.90;;
75810;SDS011;64449;50.016;19.954;2022-10-30T11:20:04;9.40;;;4.20;;
75810;SDS011;64449;50.016;19.954;2022-10-30T11:22:40;9.50;;;5.10;;
75810;SDS011;64449;50.016;19.954;2022-10-30T11:25:23;11.30;;;5.30;;
75810;SDS011;64449;50.016;19.954;2022-10-30T11:27:54;7.00;;;5.00;;
75810;SDS011;64449;50.016;19.954;2022-10-30T11:30:22;9.90;;;4.50;;
75810;SDS011;64449;50.016;19.954;2022-10-30T11:32:50;9.70;;;5.50;;
75810;SDS011;64449;50.016;19.954;2022-10-30T11:35:16;9.80;;;4.70;;
75810;SDS011;64449;50.016;19.954;2022-10-30T11:37:44;14.30;;;7.00;;
75810;SDS011;64449;50.016;19.954;2022-10-30T11:42:40;13.60;;;6.00;;
75810;SDS011;64449;50.016;19.954;2022-10-30T11:45:14;11.00;;;6.10;;
75810;SDS011;64449;50.016;19.954;2022-10-30T11:47:44;14.00;;;4.50;;
75810;SDS011;64449;50.016;19.954;2022-10-30T11:50:16;12.50;;;6.30;;
75810;SDS011;64449;50.016;19.954;2022-10-30T11:52:45;11.80;;;5.60;;
75810;SDS011;64449;50.016;19.954;2022-10-30T11:57:49;8.60;;;4.70;;
75810;SDS011;64449;50.016;19.954;2022-10-30T12:02:51;7.20;;;4.20;;
75810;SDS011;64449;50.016;19.954;2022-10-30T12:07:49;9.50;;;5.10;;
75810;SDS011;64449;50.016;19.954;2022-10-30T12:10:34;9.50;;;4.80;;
75810;SDS011;64449;50.016;19.954;2022-10-30T12:13:06;10.40;;;4.30;;
75810;SDS011;64449;50.016;19.954;2022-10-30T12:15:39;11.10;;;4.70;;
75810;SDS011;64449;50.016;19.954;2022-10-30T12:18:05;8.80;;;4.30;;
75810;SDS011;64449;50.016;19.954;2022-10-30T12:20:35;10.20;;;5.30;;
75810;SDS011;64449;50.016;19.954;2022-10-30T12:23:08;7.70;;;5.00;;
75810;SDS011;64449;50.016;19.954;2022-10-30T12:25:36;11.40;;;4.20;;
75810;SDS011;64449;50.016;19.954;2022-10-30T12:33:19;8.40;;;5.10;;
75810;SDS011;64449;50.016;19.954;2022-10-30T12:35:56;9.40;;;5.40;;
75810;SDS011;64449;50.016;19.954;2022-10-30T12:43:38;7.80;;;4.00;;
75810;SDS011;64449;50.016;19.954;2022-10-30T12:49:21;7.90;;;4.10;;
75810;SDS011;64449;50.016;19.954;2022-10-30T12:54:32;7.60;;;4.20;;
75810;SDS011;64449;50.016;19.954;2022-10-30T12:59:35;7.60;;;4.00;;
75810;SDS011;64449;50.016;19.954;2022-10-30T13:05:03;8.70;;;3.90;;
75810;SDS011;64449;50.016;19.954;2022-10-30T13:07:41;8.40;;;4.20;;
75810;SDS011;64449;50.016;19.954;2022-10-30T13:12:46;10.20;;;4.50;;
75810;SDS011;64449;50.016;19.954;2022-10-30T13:17:52;9.00;;;3.50;;
75810;SDS011;64449;50.016;19.954;2022-10-30T13:20:21;8.40;;;4.30;;
75810;SDS011;64449;50.016;19.954;2022-10-30T13:22:52;10.50;;;5.20;;
75810;SDS011;64449;50.016;19.954;2022-10-30T13:25:22;9.90;;;4.90;;
75810;SDS011;64449;50.016;19.954;2022-10-30T13:28:03;11.80;;;4.50;;
75810;SDS011;64449;50.016;19.954;2022-10-30T13:30:34;10.40;;;5.50;;
75810;SDS011;64449;50.016;19.954;2022-10-30T13:35:38;9.20;;;3.80;;
75810;SDS011;64449;50.016;19.954;2022-10-30T13:38:16;11.90;;;5.30;;
75810;SDS011;64449;50.016;19.954;2022-10-30T13:40:59;10.80;;;4.50;;
75810;SDS011;64449;50.016;19.954;2022-10-30T13:43:41;14.40;;;4.30;;
75810;SDS011;64449;50.016;19.954;2022-10-30T13:46:48;8.80;;;5.00;;
75810;SDS011;64449;50.016;19.954;2022-10-30T13:49:27;10.30;;;4.30;;
75810;SDS011;64449;50.016;19.954;2022-10-30T13:52:06;12.60;;;6.70;;
75810;SDS011;64449;50.016;19.954;2022-10-30T13:54:45;10.30;;;5.70;;
75810;SDS011;64449;50.016;19.954;2022-10-30T13:57:25;10.80;;;3.70;;
75810;SDS011;64449;50.016;19.954;2022-10-30T14:00:04;10.20;;;4.10;;
75810;SDS011;64449;50.016;19.954;2022-10-30T14:02:41;8.00;;;4.20;;
75810;SDS011;64449;50.016;19.954;2022-10-30T14:05:18;15.40;;;5.90;;
75810;SDS011;64449;50.016;19.954;2022-10-30T14:11:06;9.50;;;4.10;;
75810;SDS011;64449;50.016;19.954;2022-10-30T14:19:04;10.00;;;4.00;;
75810;SDS011;64449;50.016;19.954;2022-10-30T14:24:22;7.40;;;4.00;;
75810;SDS011;64449;50.016;19.954;2022-10-30T14:26:54;7.40;;;4.20;;
75810;SDS011;64449;50.016;19.954;2022-10-30T14:32:00;10.00;;;4.80;;
75810;SDS011;64449;50.016;19.954;2022-10-30T14:37:14;9.40;;;4.40;;
75810;SDS011;64449;50.016;19.954;2022-10-30T14:46:36;9.90;;;3.90;;
75810;SDS011;64449;50.016;19.954;2022-10-30T14:48:59;15.40;;;4.20;;
75810;SDS011;64449;50.016;19.954;2022-10-30T14:52:09;7.20;;;4.50;;
75810;SDS011;64449;50.016;19.954;2022-10-30T14:54:38;11.10;;;4.40;;
75810;SDS011;64449;50.016;19.954;2022-10-30T14:57:21;11.40;;;4.50;;
75810;SDS011;64449;50.016;19.954;2022-10-30T15:08:11;12.10;;;5.30;;
75810;SDS011;64449;50.016;19.954;2022-10-30T15:10:38;7.40;;;3.80;;
75810;SDS011;64449;50.016;19.954;2022-10-30T15:13:22;10.70;;;3.80;;
75810;SDS011;64449;50.016;19.954;2022-10-30T15:18:45;8.70;;;3.40;;
75810;SDS011;64449;50.016;19.954;2022-10-30T15:21:16;9.00;;;4.00;;
75810;SDS011;64449;50.016;19.954;2022-10-30T15:23:47;7.70;;;2.90;;
75810;SDS011;64449;50.016;19.954;2022-10-30T15:26:18;7.60;;;3.60;;
75810;SDS011;64449;50.016;19.954;2022-10-30T15:28:49;9.10;;;3.80;;
75810;SDS011;64449;50.016;19.954;2022-10-30T15:33:42;6.50;;;3.20;;
75810;SDS011;64449;50.016;19.954;2022-10-30T15:36:17;7.40;;;4.00;;
75810;SDS011;64449;50.016;19.954;2022-10-30T15:41:37;8.80;;;3.50;;
75810;SDS011;64449;50.016;19.954;2022-10-30T15:44:07;7.30;;;3.40;;
75810;SDS011;64449;50.016;19.954;2022-10-30T15:46:33;10.50;;;4.40;;
75810;SDS011;64449;50.016;19.954;2022-10-30T15:48:59;8.80;;;3.60;;
75810;SDS011;64449;50.016;19.954;2022-10-30T15:51:24;7.20;;;3.60;;
75810;SDS011;64449;50.016;19.954;2022-10-30T15:53:57;6.50;;;3.00;;
75810;SDS011;64449;50.016;19.954;2022-10-30T15:56:34;7.30;;;3.40;;
75810;SDS011;64449;50.016;19.954;2022-10-30T15:59:06;9.40;;;4.60;;
75810;SDS011;64449;50.016;19.954;2022-10-30T16:01:43;12.70;;;4.20;;
75810;SDS011;64449;50.016;19.954;2022-10-30T16:04:20;9.50;;;4.50;;
75810;SDS011;64449;50.016;19.954;2022-10-30T16:06:54;13.60;;;5.20;;
75810;SDS011;64449;50.016;19.954;2022-10-30T16:09:21;10.90;;;3.90;;
75810;SDS011;64449;50.016;19.954;2022-10-30T16:11:48;12.40;;;3.50;;
75810;SDS011;64449;50.016;19.954;2022-10-30T16:14:17;10.70;;;3.50;;
75810;SDS011;64449;50.016;19.954;2022-10-30T16:16:49;8.10;;;3.90;;
75810;SDS011;64449;50.016;19.954;2022-10-30T16:19:20;8.30;;;4.00;;
75810;SDS011;64449;50.016;19.954;2022-10-30T16:21:50;8.90;;;3.70;;
75810;SDS011;64449;50.016;19.954;2022-10-30T16:24:17;8.00;;;3.60;;
75810;SDS011;64449;50.016;19.954;2022-10-30T16:26:43;9.90;;;5.00;;
75810;SDS011;64449;50.016;19.954;2022-10-30T16:31:38;13.10;;;7.70;;
75810;SDS011;64449;50.016;19.954;2022-10-30T16:34:08;11.10;;;4.40;;
75810;SDS011;64449;50.016;19.954;2022-10-30T16:36:38;14.40;;;6.50;;
75810;SDS011;64449;50.016;19.954;2022-10-30T16:39:05;12.90;;;7.80;;
75810;SDS011;64449;50.016;19.954;2022-10-30T16:41:30;9.50;;;5.30;;
75810;SDS011;64449;50.016;19.954;2022-10-30T16:44:08;24.50;;;13.60;;
75810;SDS011;64449;50.016;19.954;2022-10-30T16:46:39;12.80;;;6.30;;
75810;SDS011;64449;50.016;19.954;2022-10-30T16:49:13;12.50;;;8.20;;
75810;SDS011;64449;50.016;19.954;2022-10-30T16:51:42;11.00;;;6.30;;
75810;SDS011;64449;50.016;19.954;2022-10-30T16:54:16;9.00;;;5.50;;
75810;SDS011;64449;50.016;19.954;2022-10-30T16:56:49;14.20;;;6.80;;